createdAt,value
2022-09-03T00:00:15.060Z,1.10
2022-09-03T00:03:16.477Z,1.30
2022-09-03T00:06:17.700Z,1.30
2022-09-03T00:09:36.101Z,1.10
2022-09-03T00:12:34.701Z,1.20
2022-09-03T00:15:24.716Z,1.10
2022-09-03T00:18:22.224Z,1.50
2022-09-03T00:21:22.542Z,1.40
2022-09-03T00:24:15.623Z,1.60
2022-09-03T00:27:11.673Z,1.30
2022-09-03T00:30:21.467Z,1.20
2022-09-03T00:33:27.375Z,1.30
2022-09-03T00:36:45.218Z,1.30
2022-09-03T00:39:33.766Z,0.90
2022-09-03T00:43:16.323Z,1.10
2022-09-03T00:46:51.283Z,1.10
2022-09-03T00:49:48.545Z,1.40
2022-09-03T00:53:00.944Z,1.10
2022-09-03T00:56:25.138Z,1.00
2022-09-03T00:59:35.908Z,0.90
2022-09-03T01:02:58.565Z,1.00
2022-09-03T01:06:13.449Z,1.10
2022-09-03T01:09:09.670Z,1.00
2022-09-03T01:12:03.480Z,1.10
2022-09-03T01:15:06.856Z,1.00
2022-09-03T01:18:21.888Z,1.10
2022-09-03T01:21:28.229Z,1.20
2022-09-03T01:24:35.965Z,1.10
2022-09-03T01:27:50.793Z,1.10
2022-09-03T01:30:49.335Z,1.10
2022-09-03T01:34:25.843Z,1.00
2022-09-03T01:37:39.110Z,1.10
2022-09-03T01:41:36.790Z,1.20
2022-09-03T01:45:14.293Z,1.00
2022-09-03T01:48:12.117Z,1.10
2022-09-03T01:51:19.809Z,1.00
2022-09-03T01:54:38.654Z,1.00
2022-09-03T01:58:06.763Z,1.00
2022-09-03T02:01:07.710Z,1.10
2022-09-03T02:04:00.124Z,1.30
2022-09-03T02:06:49.058Z,0.90
2022-09-03T02:09:36.730Z,1.40
2022-09-03T02:12:25.466Z,0.90
2022-09-03T02:15:19.526Z,1.00
2022-09-03T02:18:17.293Z,1.10
2022-09-03T02:21:05.616Z,0.90
2022-09-03T02:23:54.109Z,1.20
2022-09-03T02:26:41.917Z,1.20
2022-09-03T02:29:31.038Z,1.10
2022-09-03T02:32:19.193Z,1.00
2022-09-03T02:35:08.140Z,1.10
2022-09-03T02:37:56.360Z,1.10
2022-09-03T02:40:45.860Z,0.90
2022-09-03T02:43:45.783Z,1.10
2022-09-03T02:47:03.055Z,1.20
2022-09-03T02:49:52.745Z,1.00
2022-09-03T02:52:40.967Z,1.20
2022-09-03T02:55:30.665Z,1.00
2022-09-03T02:58:18.665Z,1.30
2022-09-03T03:01:06.745Z,1.20
2022-09-03T03:03:54.640Z,1.10
2022-09-03T03:06:42.719Z,1.10
2022-09-03T03:09:35.783Z,1.00
2022-09-03T03:12:23.613Z,1.00
2022-09-03T03:15:11.649Z,1.00
2022-09-03T03:17:59.659Z,1.10
2022-09-03T03:20:50.355Z,1.10
2022-09-03T03:23:39.752Z,1.20
2022-09-03T03:26:27.269Z,0.90
2022-09-03T03:29:20.871Z,1.30
2022-09-03T03:32:09.101Z,0.90
2022-09-03T03:34:57.097Z,1.00
2022-09-03T03:37:45.448Z,1.30
2022-09-03T03:40:35.016Z,1.00
2022-09-03T03:43:23.055Z,0.90
2022-09-03T03:46:12.178Z,0.90
2022-09-03T03:49:01.359Z,1.00
2022-09-03T03:51:49.361Z,1.10
2022-09-03T03:54:37.683Z,1.00
2022-09-03T03:57:26.046Z,1.10
2022-09-03T04:00:15.581Z,1.10
2022-09-03T04:03:04.775Z,1.70
2022-09-03T04:05:59.346Z,1.20
2022-09-03T04:08:49.764Z,1.20
2022-09-03T04:11:37.454Z,1.40
2022-09-03T04:14:27.356Z,1.10
2022-09-03T04:17:15.799Z,1.40
2022-09-03T04:20:04.813Z,1.30
2022-09-03T04:22:52.694Z,1.30
2022-09-03T04:25:42.097Z,1.20
2022-09-03T04:28:30.065Z,1.20
2022-09-03T04:31:21.347Z,1.30
2022-09-03T04:34:09.640Z,1.40
2022-09-03T04:37:00.718Z,1.50
2022-09-03T04:39:48.805Z,1.40
2022-09-03T04:42:36.741Z,1.80
2022-09-03T04:45:24.850Z,1.40
2022-09-03T04:48:13.868Z,1.40
2022-09-03T04:51:07.535Z,1.60
2022-09-03T04:54:00.359Z,1.60
2022-09-03T04:56:48.888Z,1.50
2022-09-03T04:59:37.243Z,1.50
2022-09-03T05:02:25.617Z,1.60
2022-09-03T05:05:13.971Z,1.40
2022-09-03T05:08:02.267Z,1.50
2022-09-03T05:10:50.115Z,1.30
2022-09-03T05:13:43.380Z,1.40
2022-09-03T05:16:31.636Z,1.60
2022-09-03T05:19:19.864Z,1.60
2022-09-03T05:22:08.315Z,1.60
2022-09-03T05:24:58.261Z,1.40
2022-09-03T05:27:47.206Z,1.50
2022-09-03T05:30:36.667Z,1.30
2022-09-03T05:33:25.138Z,1.70
2022-09-03T05:36:17.182Z,1.50
2022-09-03T05:39:09.563Z,1.30
2022-09-03T05:41:57.491Z,1.50
2022-09-03T05:44:45.705Z,1.30
2022-09-03T05:47:33.620Z,1.40
2022-09-03T05:50:21.587Z,1.50
2022-09-03T05:53:09.753Z,1.40
2022-09-03T05:56:00.353Z,1.70
2022-09-03T05:58:52.722Z,1.50
2022-09-03T06:01:50.702Z,1.60
2022-09-03T06:04:40.295Z,1.40
2022-09-03T06:07:28.388Z,1.30
2022-09-03T06:10:20.225Z,1.30
2022-09-03T06:13:10.876Z,1.30
2022-09-03T06:16:08.703Z,1.40
2022-09-03T06:18:57.003Z,1.40
2022-09-03T06:21:48.521Z,1.30
2022-09-03T06:24:37.000Z,1.60
2022-09-03T06:27:26.213Z,1.20
2022-09-03T06:30:17.214Z,1.40
2022-09-03T06:33:04.877Z,1.50
2022-09-03T06:35:58.190Z,1.70
2022-09-03T06:38:47.630Z,1.40
2022-09-03T06:41:36.155Z,1.80
2022-09-03T06:44:24.327Z,1.50
2022-09-03T06:47:12.244Z,1.40
2022-09-03T06:50:02.329Z,1.40
2022-09-03T06:52:57.059Z,1.40
2022-09-03T06:55:53.867Z,1.80
2022-09-03T06:58:45.592Z,1.70
2022-09-03T07:01:34.987Z,1.40
2022-09-03T07:04:25.175Z,1.70
2022-09-03T07:07:14.203Z,1.70
2022-09-03T07:10:02.567Z,1.70
2022-09-03T07:12:50.524Z,1.80
2022-09-03T07:15:38.483Z,1.90
2022-09-03T07:18:26.254Z,1.80
2022-09-03T07:21:27.221Z,1.50
2022-09-03T07:24:15.476Z,1.60
2022-09-03T07:27:09.836Z,1.60
2022-09-03T07:30:00.686Z,1.80
2022-09-03T07:32:51.154Z,1.50
2022-09-03T07:35:39.150Z,1.60
2022-09-03T07:38:27.034Z,1.40
2022-09-03T07:41:26.807Z,1.40
2022-09-03T07:44:19.981Z,1.40
2022-09-03T07:47:10.252Z,1.70
2022-09-03T07:49:58.209Z,1.80
2022-09-03T07:52:46.128Z,1.40
2022-09-03T07:55:34.134Z,1.60
2022-09-03T07:58:24.267Z,1.50
2022-09-03T08:01:18.197Z,1.40
2022-09-03T08:04:09.710Z,1.40
2022-09-03T08:06:59.509Z,1.10
2022-09-03T08:09:51.151Z,1.50
2022-09-03T08:12:39.420Z,1.50
2022-09-03T08:15:27.875Z,1.30
2022-09-03T08:18:15.966Z,1.10
2022-09-03T08:21:16.314Z,1.00
2022-09-03T08:24:04.864Z,1.00
2022-09-03T08:26:52.814Z,1.10
2022-09-03T08:29:40.696Z,1.10
2022-09-03T08:32:31.044Z,1.40
2022-09-03T08:35:22.133Z,1.10
2022-09-03T08:38:11.013Z,0.90
2022-09-03T08:41:17.535Z,0.90
2022-09-03T08:44:33.444Z,1.10
2022-09-03T08:47:46.644Z,1.20
2022-09-03T08:50:56.208Z,1.00
2022-09-03T08:53:56.252Z,0.90
2022-09-03T08:56:44.836Z,1.10
2022-09-03T08:59:33.951Z,1.00
2022-09-03T09:03:01.512Z,0.90
2022-09-03T09:06:17.193Z,0.70
2022-09-03T09:09:39.415Z,0.80
2022-09-03T09:12:44.201Z,1.00
2022-09-03T09:16:40.557Z,0.80
2022-09-03T09:20:16.794Z,0.90
2022-09-03T09:23:09.228Z,0.70
2022-09-03T09:26:01.847Z,0.70
2022-09-03T09:29:09.452Z,0.80
2022-09-03T09:31:58.234Z,0.70
2022-09-03T09:34:51.837Z,0.60
2022-09-03T09:37:51.209Z,0.70
2022-09-03T09:40:45.642Z,0.70
2022-09-03T09:43:34.068Z,0.90
2022-09-03T09:46:31.253Z,0.80
2022-09-03T09:49:36.045Z,0.60
2022-09-03T09:52:30.436Z,0.70
2022-09-03T09:55:20.607Z,0.70
2022-09-03T09:58:14.701Z,0.70
2022-09-03T10:01:13.565Z,0.80
2022-09-03T10:04:24.558Z,0.90
2022-09-03T10:07:33.283Z,0.70
2022-09-03T10:10:22.277Z,0.90
2022-09-03T10:13:31.163Z,1.00
2022-09-03T10:16:36.296Z,1.00
2022-09-03T10:19:40.854Z,0.70
2022-09-03T10:22:35.234Z,0.70
2022-09-03T10:25:29.893Z,0.80
2022-09-03T10:28:18.599Z,0.60
2022-09-03T10:31:37.032Z,0.60
2022-09-03T10:34:59.047Z,0.70
2022-09-03T10:38:00.873Z,0.70
2022-09-03T10:41:09.803Z,0.80
2022-09-03T10:44:19.762Z,1.00
2022-09-03T10:47:19.826Z,1.10
2022-09-03T10:50:59.929Z,0.80
2022-09-03T10:54:36.094Z,0.80
2022-09-03T10:58:11.476Z,1.20
2022-09-03T11:01:22.411Z,1.20
2022-09-03T11:05:01.216Z,1.10
2022-09-03T11:08:03.659Z,0.80
2022-09-03T11:11:00.895Z,1.10
2022-09-03T11:14:00.322Z,1.10
2022-09-03T11:17:03.176Z,1.20
2022-09-03T11:19:58.979Z,0.80
2022-09-03T11:22:49.778Z,1.10
2022-09-03T11:25:54.830Z,1.10
2022-09-03T11:28:57.249Z,0.70
2022-09-03T11:31:58.062Z,0.70
2022-09-03T11:34:52.736Z,1.00
2022-09-03T11:38:00.012Z,0.70
2022-09-03T11:41:27.373Z,0.90
2022-09-03T11:45:16.783Z,1.00
2022-09-03T11:48:48.309Z,0.80
2022-09-03T11:51:42.145Z,1.10
2022-09-03T11:54:33.656Z,0.70
2022-09-03T11:57:30.795Z,1.00
2022-09-03T12:00:21.765Z,0.70
2022-09-03T12:03:16.471Z,0.80
2022-09-03T12:06:49.663Z,1.00
2022-09-03T12:10:19.431Z,0.90
2022-09-03T12:13:40.622Z,0.80
2022-09-03T12:16:56.699Z,0.80
2022-09-03T12:19:56.377Z,0.80
2022-09-03T12:22:44.191Z,0.70
2022-09-03T12:25:32.535Z,0.70
2022-09-03T12:28:26.393Z,0.90
2022-09-03T12:31:24.755Z,1.00
2022-09-03T12:34:20.196Z,0.90
2022-09-03T12:40:32.922Z,0.80
2022-09-03T12:46:34.440Z,1.30
2022-09-03T12:49:30.427Z,1.00
2022-09-03T12:52:33.171Z,0.80
2022-09-03T12:55:54.112Z,1.00
2022-09-03T12:59:02.356Z,1.00
2022-09-03T13:01:58.762Z,0.90
2022-09-03T13:04:47.512Z,0.80
2022-09-03T13:07:39.057Z,0.80
2022-09-03T13:10:39.062Z,0.80
2022-09-03T13:13:36.781Z,0.90
2022-09-03T13:16:46.792Z,0.70
2022-09-03T13:19:51.034Z,0.80
2022-09-03T19:45:26.634Z,5.50
2022-09-03T19:49:18.224Z,6.70
2022-09-03T19:52:40.148Z,6.50
2022-09-03T19:55:55.028Z,6.40
2022-09-03T19:59:29.717Z,7.00
2022-09-03T20:02:36.326Z,6.30
2022-09-03T20:05:43.863Z,5.90
2022-09-03T20:08:52.835Z,5.40
2022-09-03T20:11:41.915Z,6.00
2022-09-03T20:14:33.219Z,5.70
2022-09-03T20:18:19.684Z,5.30
2022-09-03T20:21:23.740Z,5.50
2022-09-03T20:24:34.234Z,5.40
2022-09-03T20:27:58.751Z,5.00
2022-09-03T20:31:25.089Z,5.50
2022-09-03T20:34:35.330Z,4.90
2022-09-03T20:37:30.157Z,5.00
2022-09-03T20:40:40.158Z,4.80
2022-09-03T20:43:59.054Z,4.20
2022-09-03T20:47:05.800Z,4.20
2022-09-03T20:50:22.246Z,4.20
2022-09-03T20:53:23.726Z,4.30
2022-09-03T20:56:35.739Z,3.80
2022-09-03T20:59:36.104Z,4.50
2022-09-03T21:03:20.121Z,3.70
2022-09-03T21:06:39.120Z,4.00
2022-09-03T21:10:05.322Z,4.20
2022-09-03T21:13:47.731Z,4.20
2022-09-03T21:17:00.544Z,4.20
2022-09-03T21:20:16.547Z,4.30
2022-09-03T21:23:21.929Z,4.00
2022-09-03T21:26:27.648Z,4.00
2022-09-03T21:29:32.999Z,4.20
2022-09-03T21:32:29.434Z,3.80
2022-09-03T21:35:43.090Z,4.40
2022-09-03T21:38:38.591Z,4.40
2022-09-03T21:41:49.700Z,4.60
2022-09-03T21:45:07.814Z,4.20
2022-09-03T21:48:18.550Z,4.40
2022-09-03T21:51:22.103Z,5.00
2022-09-03T21:54:19.164Z,5.30
2022-09-03T21:57:40.764Z,5.70
2022-09-03T22:00:32.792Z,4.10
2022-09-03T22:03:21.824Z,3.90
2022-09-03T22:06:25.769Z,4.30
2022-09-03T22:09:33.722Z,4.30
2022-09-03T22:12:40.187Z,4.50
2022-09-03T22:15:29.965Z,4.60
2022-09-03T22:18:28.812Z,4.40
2022-09-03T22:21:37.218Z,4.20
2022-09-03T22:24:48.218Z,3.70
2022-09-03T22:27:50.044Z,3.40
2022-09-03T22:31:13.032Z,2.90
2022-09-03T22:34:46.399Z,2.90
2022-09-03T22:38:01.909Z,2.50
2022-09-03T22:41:16.267Z,2.60
2022-09-03T22:44:22.879Z,2.10
2022-09-03T22:48:02.844Z,2.00
2022-09-03T22:51:00.637Z,1.80
2022-09-03T22:54:05.283Z,1.70
2022-09-03T22:56:56.319Z,1.70
2022-09-03T23:00:09.722Z,2.20
2022-09-03T23:03:07.971Z,1.70
2022-09-03T23:06:13.436Z,1.40
2022-09-03T23:09:36.994Z,1.60
2022-09-03T23:12:46.435Z,1.60
2022-09-03T23:15:38.700Z,1.60
2022-09-03T23:18:32.553Z,1.40
2022-09-03T23:21:41.181Z,1.50
2022-09-03T23:24:50.273Z,1.50
2022-09-03T23:27:53.682Z,1.50
2022-09-03T23:30:41.905Z,1.90
2022-09-03T23:33:29.568Z,1.60
2022-09-03T23:36:50.997Z,1.50
2022-09-03T23:40:16.380Z,1.60
2022-09-03T23:43:14.380Z,2.00
2022-09-03T23:46:19.065Z,1.60
2022-09-03T23:49:27.400Z,1.50
2022-09-03T23:52:20.980Z,1.60
2022-09-03T23:55:41.608Z,1.50
2022-09-03T23:58:44.351Z,1.30
